Florence, SC (29501)

8:19 AM EST on February 11, 2016 (GMT -0500)
Forest Hills | | Change Station
CLOSE
Current Station
Personal Weather Station
Location: Florence, SC
Elevation: 115 ft
Nearby Weather Stations
Active Advisory: Flood Warning

Elev 115 ft 34.18 °N, 79.78 °W | Updated 6 minutes ago

Clear
Clear
24.4 °F
Feels Like 24 °F
N
0.0
Wind Variable Wind from SW

Today
High -- | Low -- °F
--% Chance of Precip.
Yesterday
High -- | Low -- °F
Precip. -- in
Pressure 30.22 in
Visibility 10.0 miles
Clouds Clear
Windchill 24 °F
Dew Point 19 °F
Humidity 79%
Rainfall 0.00 in
Snow Depth Not available.
7:08 AM 5:58 PM
Waxing Crescent, 12% visible
METAR KFLO 111253Z 00000KT 10SM CLR M04/M07 A3022 RMK AO2 SLP234 T10391067
Pressure 30.22 in
Visibility 10.0 miles
Clouds Clear
Windchill 24 °F
Dew Point 19 °F
Humidity 79%
Rainfall 0.00 in
Snow Depth Not available.
7:08 AM 5:58 PM
Waxing Crescent, 12% visible
METAR KFLO 111253Z 00000KT 10SM CLR M04/M07 A3022 RMK AO2 SLP234 T10391067

10-Day Weather Forecast

Almanac

Astronomy

Feb. 11, 2016 Rise Set
Actual Time
Civil Twilight
Nautical Twilight
Astronomical Twilight
Moon
Length of Visible Light
Length of Day
Tomorrow will be .
, % of the Moon is Illuminated

Today's Extremes

State Highs State Lows

Community

WunderPhotos

Upload Photos

1,892,040 photos uploaded!

WunderBlog® & News

Nearby

Air Quality

  Air Quality AQ Index Pollutant
Not available.

Snow Depth

Station Depth Elevation

Earthquake Activity

City Distance Mag. Time & Date
Minimum magnitude displayed is 2.5.

Coastal Water Temperatures

Place Temperature

Stations

Nearby Weather Stations

Station Location Temp. Windchill Dew Point Humidity Wind Precip. Elev Updated Type
                   

Watches & Warnings

Flood Warning
Issued: 8:14 PM EST Feb. 10, 2016 – National Weather Service

The Flood Warning continues for
the great Pee Dee at Pee Dee.
* Until Sunday afternoon.
* At 8:00 PM Wednesday the stage was 21.42 feet.
* Flood stage is 19.0 feet.
* Minor flooding is occurring and minor flooding is forecast.
* Forecast... the river will continue to fall to below flood stage by early
Sunday morning.
* Impact... at 20.0 feet... flood waters will affect swamplands and logging
interests. Flood waters will affect Timberland as far downstream as Yauhannah
two weeks after the crest passes Pee Dee. Logging equipment needs to be moved.


Lat... Lon 3424 7962 3424 7950 3400 7945 3385 7932
          3385 7944 3398 7957